sensor_id;sensor_type;location;lat;lon;timestamp;temperature;humidity
51655;DHT22;37732;53.106;7.030;2022-09-29T00:00:12;5.50;99.90
51655;DHT22;37732;53.106;7.030;2022-09-29T00:02:39;5.60;99.90
51655;DHT22;37732;53.106;7.030;2022-09-29T00:05:05;6.00;99.90
51655;DHT22;37732;53.106;7.030;2022-09-29T00:07:31;5.60;99.90
51655;DHT22;37732;53.106;7.030;2022-09-29T00:09:57;6.40;99.90
51655;DHT22;37732;53.106;7.030;2022-09-29T00:12:23;5.90;99.90
51655;DHT22;37732;53.106;7.030;2022-09-29T00:14:50;6.10;99.90
51655;DHT22;37732;53.106;7.030;2022-09-29T00:17:16;6.50;99.90
51655;DHT22;37732;53.106;7.030;2022-09-29T00:19:41;5.90;99.90
51655;DHT22;37732;53.106;7.030;2022-09-29T00:22:07;6.30;99.90
51655;DHT22;37732;53.106;7.030;2022-09-29T00:24:33;5.40;99.90
51655;DHT22;37732;53.106;7.030;2022-09-29T00:27:00;5.50;99.90
51655;DHT22;37732;53.106;7.030;2022-09-29T00:29:26;6.30;99.90
51655;DHT22;37732;53.106;7.030;2022-09-29T00:31:52;5.90;99.90
51655;DHT22;37732;53.106;7.030;2022-09-29T00:34:18;6.30;99.90
51655;DHT22;37732;53.106;7.030;2022-09-29T00:36:44;5.80;99.90
51655;DHT22;37732;53.106;7.030;2022-09-29T00:39:10;5.60;99.90
51655;DHT22;37732;53.106;7.030;2022-09-29T00:41:38;5.90;99.90
51655;DHT22;37732;53.106;7.030;2022-09-29T00:54:42;4.40;99.90
51655;DHT22;37732;53.106;7.030;2022-09-29T00:57:10;5.00;99.90
51655;DHT22;37732;53.106;7.030;2022-09-29T00:59:57;6.20;99.90
51655;DHT22;37732;53.106;7.030;2022-09-29T01:02:26;5.00;99.90
51655;DHT22;37732;53.106;7.030;2022-09-29T01:04:55;6.30;99.90
51655;DHT22;37732;53.106;7.030;2022-09-29T01:07:23;5.00;99.90
51655;DHT22;37732;53.106;7.030;2022-09-29T01:09:51;4.90;99.90
51655;DHT22;37732;53.106;7.030;2022-09-29T01:12:19;4.90;99.90
51655;DHT22;37732;53.106;7.030;2022-09-29T01:14:46;5.50;99.90
51655;DHT22;37732;53.106;7.030;2022-09-29T01:17:12;4.90;99.90
51655;DHT22;37732;53.106;7.030;2022-09-29T01:30:19;4.90;99.90
51655;DHT22;37732;53.106;7.030;2022-09-29T01:41:06;4.80;99.90
51655;DHT22;37732;53.106;7.030;2022-09-29T01:46:26;4.90;99.90
51655;DHT22;37732;53.106;7.030;2022-09-29T01:48:55;4.90;99.90
51655;DHT22;37732;53.106;7.030;2022-09-29T01:51:31;5.60;99.90
51655;DHT22;37732;53.106;7.030;2022-09-29T01:54:04;4.40;99.90
51655;DHT22;37732;53.106;7.030;2022-09-29T01:56:57;4.80;99.90
51655;DHT22;37732;53.106;7.030;2022-09-29T01:59:54;4.80;99.90
51655;DHT22;37732;53.106;7.030;2022-09-29T02:02:33;4.70;99.90
51655;DHT22;37732;53.106;7.030;2022-09-29T02:05:03;4.70;99.90
51655;DHT22;37732;53.106;7.030;2022-09-29T02:07:37;4.60;99.90
51655;DHT22;37732;53.106;7.030;2022-09-29T02:10:09;4.60;99.90
51655;DHT22;37732;53.106;7.030;2022-09-29T02:12:37;4.60;99.90
51655;DHT22;37732;53.106;7.030;2022-09-29T02:15:06;5.10;99.90
51655;DHT22;37732;53.106;7.030;2022-09-29T02:17:36;4.60;99.90
51655;DHT22;37732;53.106;7.030;2022-09-29T02:20:03;4.30;99.90
51655;DHT22;37732;53.106;7.030;2022-09-29T02:22:29;4.60;99.90
51655;DHT22;37732;53.106;7.030;2022-09-29T02:24:57;4.50;99.90
51655;DHT22;37732;53.106;7.030;2022-09-29T02:27:25;4.60;99.90
51655;DHT22;37732;53.106;7.030;2022-09-29T02:29:52;4.60;99.90
51655;DHT22;37732;53.106;7.030;2022-09-29T02:32:18;4.60;99.90
51655;DHT22;37732;53.106;7.030;2022-09-29T02:34:47;4.60;99.90
51655;DHT22;37732;53.106;7.030;2022-09-29T02:57:25;4.60;99.90
51655;DHT22;37732;53.106;7.030;2022-09-29T03:02:26;4.60;99.90
51655;DHT22;37732;53.106;7.030;2022-09-29T03:04:52;4.60;99.90
51655;DHT22;37732;53.106;7.030;2022-09-29T03:07:19;4.50;99.90
51655;DHT22;37732;53.106;7.030;2022-09-29T03:09:45;5.10;99.90
51655;DHT22;37732;53.106;7.030;2022-09-29T03:12:11;4.40;99.90
51655;DHT22;37732;53.106;7.030;2022-09-29T03:14:38;4.40;99.90
51655;DHT22;37732;53.106;7.030;2022-09-29T03:17:03;4.70;99.90
51655;DHT22;37732;53.106;7.030;2022-09-29T03:19:29;4.40;99.90
51655;DHT22;37732;53.106;7.030;2022-09-29T03:21:55;5.10;99.90
51655;DHT22;37732;53.106;7.030;2022-09-29T03:24:20;3.90;99.90
51655;DHT22;37732;53.106;7.030;2022-09-29T03:26:46;4.40;99.90
51655;DHT22;37732;53.106;7.030;2022-09-29T03:29:12;4.10;99.90
51655;DHT22;37732;53.106;7.030;2022-09-29T03:31:39;4.60;99.90
51655;DHT22;37732;53.106;7.030;2022-09-29T03:34:05;5.50;99.90
51655;DHT22;37732;53.106;7.030;2022-09-29T03:36:31;4.40;99.90
51655;DHT22;37732;53.106;7.030;2022-09-29T03:38:56;4.40;99.90
51655;DHT22;37732;53.106;7.030;2022-09-29T03:41:22;4.60;99.90
51655;DHT22;37732;53.106;7.030;2022-09-29T03:43:48;5.40;99.90
51655;DHT22;37732;53.106;7.030;2022-09-29T03:46:14;3.80;99.90
51655;DHT22;37732;53.106;7.030;2022-09-29T03:48:40;3.60;99.90
51655;DHT22;37732;53.106;7.030;2022-09-29T03:51:07;4.30;99.90
51655;DHT22;37732;53.106;7.030;2022-09-29T03:53:34;4.30;99.90
51655;DHT22;37732;53.106;7.030;2022-09-29T03:56:01;4.30;99.90
51655;DHT22;37732;53.106;7.030;2022-09-29T03:58:27;4.30;99.90
51655;DHT22;37732;53.106;7.030;2022-09-29T04:00:52;5.40;99.90
51655;DHT22;37732;53.106;7.030;2022-09-29T04:03:19;3.90;99.90
51655;DHT22;37732;53.106;7.030;2022-09-29T04:05:46;4.90;99.90
51655;DHT22;37732;53.106;7.030;2022-09-29T04:08:13;4.40;99.90
51655;DHT22;37732;53.106;7.030;2022-09-29T04:10:40;4.30;99.90
51655;DHT22;37732;53.106;7.030;2022-09-29T04:13:07;3.90;99.90
51655;DHT22;37732;53.106;7.030;2022-09-29T04:15:33;4.30;99.90
51655;DHT22;37732;53.106;7.030;2022-09-29T04:18:00;4.00;99.90
51655;DHT22;37732;53.106;7.030;2022-09-29T04:20:26;5.10;99.90
51655;DHT22;37732;53.106;7.030;2022-09-29T04:22:51;3.70;99.90
51655;DHT22;37732;53.106;7.030;2022-09-29T04:25:17;4.80;99.90
51655;DHT22;37732;53.106;7.030;2022-09-29T04:27:43;5.30;99.90
51655;DHT22;37732;53.106;7.030;2022-09-29T04:30:10;3.60;99.90
51655;DHT22;37732;53.106;7.030;2022-09-29T04:32:36;4.20;99.90
51655;DHT22;37732;53.106;7.030;2022-09-29T04:35:02;4.20;99.90
51655;DHT22;37732;53.106;7.030;2022-09-29T04:37:28;4.20;99.90
51655;DHT22;37732;53.106;7.030;2022-09-29T04:39:54;5.00;99.90
51655;DHT22;37732;53.106;7.030;2022-09-29T04:42:20;4.20;99.90
51655;DHT22;37732;53.106;7.030;2022-09-29T04:44:46;4.00;99.90
51655;DHT22;37732;53.106;7.030;2022-09-29T04:47:12;4.10;99.90
51655;DHT22;37732;53.106;7.030;2022-09-29T04:49:38;5.30;99.90
51655;DHT22;37732;53.106;7.030;2022-09-29T04:52:04;4.00;99.90
51655;DHT22;37732;53.106;7.030;2022-09-29T04:54:33;3.50;99.90
51655;DHT22;37732;53.106;7.030;2022-09-29T04:56:59;4.80;99.90
51655;DHT22;37732;53.106;7.030;2022-09-29T04:59:26;4.10;99.90
51655;DHT22;37732;53.106;7.030;2022-09-29T05:01:53;3.90;99.90
51655;DHT22;37732;53.106;7.030;2022-09-29T05:04:19;3.80;99.90
51655;DHT22;37732;53.106;7.030;2022-09-29T05:06:45;3.60;99.90
51655;DHT22;37732;53.106;7.030;2022-09-29T05:09:11;5.10;99.90
51655;DHT22;37732;53.106;7.030;2022-09-29T05:11:36;4.10;99.90
51655;DHT22;37732;53.106;7.030;2022-09-29T05:14:03;5.70;99.90
51655;DHT22;37732;53.106;7.030;2022-09-29T05:16:29;4.10;99.90
51655;DHT22;37732;53.106;7.030;2022-09-29T05:18:55;3.60;99.90
51655;DHT22;37732;53.106;7.030;2022-09-29T05:21:21;4.00;99.90
51655;DHT22;37732;53.106;7.030;2022-09-29T05:23:47;5.30;99.90
51655;DHT22;37732;53.106;7.030;2022-09-29T05:26:14;3.60;99.90
51655;DHT22;37732;53.106;7.030;2022-09-29T05:28:45;4.10;99.90
51655;DHT22;37732;53.106;7.030;2022-09-29T05:31:12;3.50;99.90
51655;DHT22;37732;53.106;7.030;2022-09-29T05:33:38;5.10;99.90
51655;DHT22;37732;53.106;7.030;2022-09-29T05:36:08;3.40;99.90
51655;DHT22;37732;53.106;7.030;2022-09-29T05:38:36;4.10;99.90
51655;DHT22;37732;53.106;7.030;2022-09-29T05:41:06;3.70;99.90
51655;DHT22;37732;53.106;7.030;2022-09-29T05:43:32;3.50;99.90
51655;DHT22;37732;53.106;7.030;2022-09-29T05:46:05;4.00;99.90
51655;DHT22;37732;53.106;7.030;2022-09-29T05:48:31;3.90;99.90
51655;DHT22;37732;53.106;7.030;2022-09-29T05:50:58;4.10;99.90
51655;DHT22;37732;53.106;7.030;2022-09-29T05:53:25;3.60;99.90
51655;DHT22;37732;53.106;7.030;2022-09-29T05:55:52;5.60;99.90
51655;DHT22;37732;53.106;7.030;2022-09-29T05:58:18;3.70;99.90
51655;DHT22;37732;53.106;7.030;2022-09-29T06:00:44;5.10;99.90
51655;DHT22;37732;53.106;7.030;2022-09-29T06:03:09;3.80;99.90
51655;DHT22;37732;53.106;7.030;2022-09-29T06:05:38;3.70;99.90
51655;DHT22;37732;53.106;7.030;2022-09-29T06:08:04;3.90;99.90
51655;DHT22;37732;53.106;7.030;2022-09-29T06:10:31;4.60;99.90
51655;DHT22;37732;53.106;7.030;2022-09-29T06:12:58;4.40;99.90
51655;DHT22;37732;53.106;7.030;2022-09-29T06:15:24;4.40;99.90
51655;DHT22;37732;53.106;7.030;2022-09-29T06:17:59;4.40;99.90
51655;DHT22;37732;53.106;7.030;2022-09-29T06:20:28;4.50;99.90
51655;DHT22;37732;53.106;7.030;2022-09-29T06:22:54;5.80;99.90
51655;DHT22;37732;53.106;7.030;2022-09-29T06:25:21;4.60;99.90
51655;DHT22;37732;53.106;7.030;2022-09-29T06:27:47;4.80;99.90
51655;DHT22;37732;53.106;7.030;2022-09-29T06:30:13;6.10;99.90
51655;DHT22;37732;53.106;7.030;2022-09-29T06:32:39;4.80;99.90
51655;DHT22;37732;53.106;7.030;2022-09-29T06:35:06;4.30;99.90
51655;DHT22;37732;53.106;7.030;2022-09-29T06:37:58;4.90;99.90
51655;DHT22;37732;53.106;7.030;2022-09-29T06:40:24;5.00;99.90
51655;DHT22;37732;53.106;7.030;2022-09-29T06:42:51;5.30;99.90
51655;DHT22;37732;53.106;7.030;2022-09-29T06:45:17;4.90;99.90
51655;DHT22;37732;53.106;7.030;2022-09-29T06:47:44;5.20;99.90
51655;DHT22;37732;53.106;7.030;2022-09-29T06:50:09;5.60;99.90
51655;DHT22;37732;53.106;7.030;2022-09-29T06:52:35;5.40;99.90
51655;DHT22;37732;53.106;7.030;2022-09-29T06:55:02;6.50;99.90
51655;DHT22;37732;53.106;7.030;2022-09-29T06:57:27;5.90;99.90
51655;DHT22;37732;53.106;7.030;2022-09-29T06:59:53;6.20;99.90
51655;DHT22;37732;53.106;7.030;2022-09-29T07:02:19;7.30;99.90
51655;DHT22;37732;53.106;7.030;2022-09-29T07:04:45;6.30;99.90
51655;DHT22;37732;53.106;7.030;2022-09-29T07:07:12;7.00;99.90
51655;DHT22;37732;53.106;7.030;2022-09-29T07:09:38;6.40;99.90
51655;DHT22;37732;53.106;7.030;2022-09-29T07:12:04;6.40;99.90
51655;DHT22;37732;53.106;7.030;2022-09-29T07:14:30;6.30;99.90
51655;DHT22;37732;53.106;7.030;2022-09-29T07:16:56;6.30;99.90
51655;DHT22;37732;53.106;7.030;2022-09-29T07:19:24;6.70;99.90
51655;DHT22;37732;53.106;7.030;2022-09-29T07:21:50;6.40;99.90
51655;DHT22;37732;53.106;7.030;2022-09-29T07:24:16;6.40;99.90
51655;DHT22;37732;53.106;7.030;2022-09-29T07:26:42;6.50;99.90
51655;DHT22;37732;53.106;7.030;2022-09-29T07:29:09;6.50;99.90
51655;DHT22;37732;53.106;7.030;2022-09-29T07:31:35;6.50;99.90
51655;DHT22;37732;53.106;7.030;2022-09-29T07:34:01;6.70;99.90
51655;DHT22;37732;53.106;7.030;2022-09-29T07:36:27;7.60;99.90
51655;DHT22;37732;53.106;7.030;2022-09-29T07:38:53;6.90;99.90
51655;DHT22;37732;53.106;7.030;2022-09-29T07:41:20;7.10;99.90
51655;DHT22;37732;53.106;7.030;2022-09-29T07:43:46;7.60;99.90
51655;DHT22;37732;53.106;7.030;2022-09-29T07:48:39;7.60;99.90
51655;DHT22;37732;53.106;7.030;2022-09-29T07:51:07;8.00;99.90
51655;DHT22;37732;53.106;7.030;2022-09-29T07:53:33;8.00;99.90
51655;DHT22;37732;53.106;7.030;2022-09-29T07:56:07;9.20;99.90
51655;DHT22;37732;53.106;7.030;2022-09-29T07:58:33;8.20;99.90
51655;DHT22;37732;53.106;7.030;2022-09-29T08:01:00;9.30;99.90
51655;DHT22;37732;53.106;7.030;2022-09-29T08:03:28;8.60;99.90
51655;DHT22;37732;53.106;7.030;2022-09-29T08:05:55;8.80;99.90
51655;DHT22;37732;53.106;7.030;2022-09-29T08:08:23;9.00;99.90
51655;DHT22;37732;53.106;7.030;2022-09-29T08:10:50;9.30;99.90
51655;DHT22;37732;53.106;7.030;2022-09-29T08:13:16;10.40;99.90
51655;DHT22;37732;53.106;7.030;2022-09-29T08:15:42;9.30;99.90
51655;DHT22;37732;53.106;7.030;2022-09-29T08:18:08;10.10;99.90
51655;DHT22;37732;53.106;7.030;2022-09-29T08:20:34;9.50;99.90
51655;DHT22;37732;53.106;7.030;2022-09-29T08:23:01;9.40;99.90
51655;DHT22;37732;53.106;7.030;2022-09-29T08:25:27;9.60;99.90
51655;DHT22;37732;53.106;7.030;2022-09-29T08:27:53;9.60;99.90
51655;DHT22;37732;53.106;7.030;2022-09-29T08:30:19;10.30;99.90
51655;DHT22;37732;53.106;7.030;2022-09-29T08:32:53;9.80;99.90
51655;DHT22;37732;53.106;7.030;2022-09-29T08:35:19;10.40;99.90
51655;DHT22;37732;53.106;7.030;2022-09-29T08:37:45;10.20;99.90
51655;DHT22;37732;53.106;7.030;2022-09-29T08:40:11;10.40;99.90
51655;DHT22;37732;53.106;7.030;2022-09-29T08:48:39;11.00;99.90
51655;DHT22;37732;53.106;7.030;2022-09-29T08:53:48;11.30;99.90
51655;DHT22;37732;53.106;7.030;2022-09-29T08:56:16;11.40;99.90
51655;DHT22;37732;53.106;7.030;2022-09-29T08:58:43;11.40;99.90
51655;DHT22;37732;53.106;7.030;2022-09-29T09:01:23;11.50;99.90
51655;DHT22;37732;53.106;7.030;2022-09-29T09:04:12;11.50;99.90
51655;DHT22;37732;53.106;7.030;2022-09-29T09:22:59;11.80;99.90
51655;DHT22;37732;53.106;7.030;2022-09-29T09:28:05;12.10;99.90
51655;DHT22;37732;53.106;7.030;2022-09-29T09:30:43;12.20;99.90
51655;DHT22;37732;53.106;7.030;2022-09-29T09:33:21;12.30;99.90
51655;DHT22;37732;53.106;7.030;2022-09-29T09:36:07;12.40;99.90
51655;DHT22;37732;53.106;7.030;2022-09-29T09:38:45;12.50;99.90
51655;DHT22;37732;53.106;7.030;2022-09-29T09:41:19;12.50;99.90
51655;DHT22;37732;53.106;7.030;2022-09-29T09:43:49;12.60;99.90
51655;DHT22;37732;53.106;7.030;2022-09-29T09:46:42;12.80;99.90
51655;DHT22;37732;53.106;7.030;2022-09-29T09:49:24;12.90;99.90
51655;DHT22;37732;53.106;7.030;2022-09-29T09:55:00;13.00;99.90
51655;DHT22;37732;53.106;7.030;2022-09-29T10:03:02;13.40;99.90
51655;DHT22;37732;53.106;7.030;2022-09-29T10:05:45;13.50;99.90
51655;DHT22;37732;53.106;7.030;2022-09-29T10:08:25;13.80;99.90
51655;DHT22;37732;53.106;7.030;2022-09-29T10:10:52;13.80;99.90
51655;DHT22;37732;53.106;7.030;2022-09-29T10:13:19;13.80;99.90
51655;DHT22;37732;53.106;7.030;2022-09-29T10:21:39;14.20;99.90
51655;DHT22;37732;53.106;7.030;2022-09-29T10:24:22;14.50;99.90
51655;DHT22;37732;53.106;7.030;2022-09-29T10:26:52;14.60;99.90
51655;DHT22;37732;53.106;7.030;2022-09-29T10:34:35;14.70;99.90
51655;DHT22;37732;53.106;7.030;2022-09-29T10:37:23;14.70;99.90
51655;DHT22;37732;53.106;7.030;2022-09-29T10:39:50;14.80;99.90
51655;DHT22;37732;53.106;7.030;2022-09-29T10:42:35;14.80;99.90
51655;DHT22;37732;53.106;7.030;2022-09-29T10:47:44;15.20;99.90
51655;DHT22;37732;53.106;7.030;2022-09-29T10:50:23;15.30;99.90
51655;DHT22;37732;53.106;7.030;2022-09-29T10:52:59;15.50;99.90
51655;DHT22;37732;53.106;7.030;2022-09-29T10:55:28;15.60;99.90
51655;DHT22;37732;53.106;7.030;2022-09-29T10:57:57;15.60;99.90
51655;DHT22;37732;53.106;7.030;2022-09-29T11:00:35;15.90;99.90
51655;DHT22;37732;53.106;7.030;2022-09-29T11:03:24;16.00;99.90
51655;DHT22;37732;53.106;7.030;2022-09-29T11:05:54;16.20;99.90
51655;DHT22;37732;53.106;7.030;2022-09-29T11:08:24;16.20;99.90
51655;DHT22;37732;53.106;7.030;2022-09-29T11:13:39;16.30;99.90
51655;DHT22;37732;53.106;7.030;2022-09-29T11:18:48;16.20;99.90
51655;DHT22;37732;53.106;7.030;2022-09-29T11:26:53;16.10;99.90
51655;DHT22;37732;53.106;7.030;2022-09-29T11:29:50;16.10;99.90
51655;DHT22;37732;53.106;7.030;2022-09-29T11:32:41;16.10;99.90
51655;DHT22;37732;53.106;7.030;2022-09-29T11:35:18;16.00;99.90
51655;DHT22;37732;53.106;7.030;2022-09-29T11:38:18;16.00;99.90
51655;DHT22;37732;53.106;7.030;2022-09-29T11:41:20;16.10;99.90
51655;DHT22;37732;53.106;7.030;2022-09-29T11:43:55;16.10;99.90
51655;DHT22;37732;53.106;7.030;2022-09-29T11:49:17;16.10;99.90
51655;DHT22;37732;53.106;7.030;2022-09-29T11:57:59;16.30;99.90
51655;DHT22;37732;53.106;7.030;2022-09-29T12:06:30;16.40;99.90
51655;DHT22;37732;53.106;7.030;2022-09-29T12:17:34;16.60;99.90
51655;DHT22;37732;53.106;7.030;2022-09-29T12:20:19;16.60;99.90
51655;DHT22;37732;53.106;7.030;2022-09-29T12:22:47;16.70;99.90
51655;DHT22;37732;53.106;7.030;2022-09-29T12:25:20;16.80;99.90
51655;DHT22;37732;53.106;7.030;2022-09-29T12:27:55;16.90;99.90
51655;DHT22;37732;53.106;7.030;2022-09-29T12:30:28;16.90;99.90
51655;DHT22;37732;53.106;7.030;2022-09-29T12:38:38;17.20;99.90
51655;DHT22;37732;53.106;7.030;2022-09-29T12:41:14;17.20;99.90
51655;DHT22;37732;53.106;7.030;2022-09-29T12:44:06;17.10;99.90
51655;DHT22;37732;53.106;7.030;2022-09-29T12:46:58;16.90;99.90
51655;DHT22;37732;53.106;7.030;2022-09-29T12:52:20;16.50;99.90
51655;DHT22;37732;53.106;7.030;2022-09-29T12:54:53;16.40;99.90
51655;DHT22;37732;53.106;7.030;2022-09-29T12:57:25;16.30;99.90
51655;DHT22;37732;53.106;7.030;2022-09-29T13:16:58;15.30;99.90
51655;DHT22;37732;53.106;7.030;2022-09-29T13:27:32;14.90;99.90
51655;DHT22;37732;53.106;7.030;2022-09-29T13:30:20;14.70;99.90
51655;DHT22;37732;53.106;7.030;2022-09-29T13:33:09;14.60;99.90
51655;DHT22;37732;53.106;7.030;2022-09-29T13:35:42;14.40;99.90
51655;DHT22;37732;53.106;7.030;2022-09-29T13:38:22;14.20;99.90
51655;DHT22;37732;53.106;7.030;2022-09-29T13:59:25;14.40;99.90
51655;DHT22;37732;53.106;7.030;2022-09-29T14:01:53;14.50;99.90
51655;DHT22;37732;53.106;7.030;2022-09-29T14:07:12;14.70;99.90
51655;DHT22;37732;53.106;7.030;2022-09-29T14:09:42;14.70;99.90
51655;DHT22;37732;53.106;7.030;2022-09-29T14:12:17;14.60;99.90
51655;DHT22;37732;53.106;7.030;2022-09-29T14:14:56;14.50;99.90
51655;DHT22;37732;53.106;7.030;2022-09-29T14:17:34;14.40;99.90
51655;DHT22;37732;53.106;7.030;2022-09-29T14:20:12;14.20;99.90
51655;DHT22;37732;53.106;7.030;2022-09-29T14:27:44;13.80;99.90
51655;DHT22;37732;53.106;7.030;2022-09-29T14:36:05;13.40;99.90
51655;DHT22;37732;53.106;7.030;2022-09-29T14:38:42;13.40;99.90
51655;DHT22;37732;53.106;7.030;2022-09-29T14:55:55;13.50;99.90
51655;DHT22;37732;53.106;7.030;2022-09-29T14:58:36;13.70;99.90
51655;DHT22;37732;53.106;7.030;2022-09-29T15:03:49;14.00;99.90
51655;DHT22;37732;53.106;7.030;2022-09-29T15:06:26;14.20;99.90
51655;DHT22;37732;53.106;7.030;2022-09-29T15:08:59;14.30;99.90
51655;DHT22;37732;53.106;7.030;2022-09-29T15:11:35;14.40;99.90
51655;DHT22;37732;53.106;7.030;2022-09-29T15:14:26;14.40;99.90
51655;DHT22;37732;53.106;7.030;2022-09-29T15:20:31;14.50;99.90
51655;DHT22;37732;53.106;7.030;2022-09-29T15:23:08;14.50;99.90
51655;DHT22;37732;53.106;7.030;2022-09-29T15:25:42;14.40;99.90
51655;DHT22;37732;53.106;7.030;2022-09-29T15:28:31;14.40;99.90
51655;DHT22;37732;53.106;7.030;2022-09-29T15:31:05;14.30;99.90
51655;DHT22;37732;53.106;7.030;2022-09-29T15:33:35;14.20;99.90
51655;DHT22;37732;53.106;7.030;2022-09-29T15:36:05;14.10;99.90
51655;DHT22;37732;53.106;7.030;2022-09-29T15:38:37;14.00;99.90
51655;DHT22;37732;53.106;7.030;2022-09-29T15:44:25;13.90;99.90
51655;DHT22;37732;53.106;7.030;2022-09-29T15:46:49;13.80;99.90
51655;DHT22;37732;53.106;7.030;2022-09-29T15:49:18;13.70;99.90
51655;DHT22;37732;53.106;7.030;2022-09-29T15:52:09;13.70;99.90
51655;DHT22;37732;53.106;7.030;2022-09-29T15:54:41;13.70;99.90
51655;DHT22;37732;53.106;7.030;2022-09-29T16:05:36;13.50;99.90
51655;DHT22;37732;53.106;7.030;2022-09-29T16:08:05;13.40;99.90
51655;DHT22;37732;53.106;7.030;2022-09-29T16:11:13;13.30;99.90
51655;DHT22;37732;53.106;7.030;2022-09-29T16:13:33;13.30;99.90
51655;DHT22;37732;53.106;7.030;2022-09-29T16:16:04;13.20;99.90
51655;DHT22;37732;53.106;7.030;2022-09-29T16:18:46;13.10;99.90
51655;DHT22;37732;53.106;7.030;2022-09-29T16:21:23;13.10;99.90
51655;DHT22;37732;53.106;7.030;2022-09-29T16:23:50;13.10;99.90
51655;DHT22;37732;53.106;7.030;2022-09-29T16:31:37;13.10;99.90
51655;DHT22;37732;53.106;7.030;2022-09-29T16:34:36;13.10;99.90
51655;DHT22;37732;53.106;7.030;2022-09-29T16:37:04;13.10;99.90
51655;DHT22;37732;53.106;7.030;2022-09-29T16:39:52;13.00;99.90
51655;DHT22;37732;53.106;7.030;2022-09-29T16:42:24;13.00;99.90
51655;DHT22;37732;53.106;7.030;2022-09-29T16:44:54;13.00;99.90
51655;DHT22;37732;53.106;7.030;2022-09-29T16:47:25;12.90;99.90
51655;DHT22;37732;53.106;7.030;2022-09-29T16:52:45;12.80;99.90
51655;DHT22;37732;53.106;7.030;2022-09-29T16:55:18;12.80;99.90
51655;DHT22;37732;53.106;7.030;2022-09-29T16:58:09;12.70;99.90
51655;DHT22;37732;53.106;7.030;2022-09-29T17:00:38;12.70;99.90
51655;DHT22;37732;53.106;7.030;2022-09-29T17:03:04;12.70;99.90
51655;DHT22;37732;53.106;7.030;2022-09-29T17:05:37;12.70;99.90
51655;DHT22;37732;53.106;7.030;2022-09-29T17:08:16;12.70;99.90
51655;DHT22;37732;53.106;7.030;2022-09-29T17:10:47;12.60;99.90
51655;DHT22;37732;53.106;7.030;2022-09-29T17:13:14;12.60;99.90
51655;DHT22;37732;53.106;7.030;2022-09-29T17:15:43;12.60;99.90
51655;DHT22;37732;53.106;7.030;2022-09-29T17:18:11;12.50;99.90
51655;DHT22;37732;53.106;7.030;2022-09-29T17:20:38;12.40;99.90
51655;DHT22;37732;53.106;7.030;2022-09-29T17:23:04;12.50;99.90
51655;DHT22;37732;53.106;7.030;2022-09-29T17:25:32;12.40;99.90
51655;DHT22;37732;53.106;7.030;2022-09-29T17:28:00;12.40;99.90
51655;DHT22;37732;53.106;7.030;2022-09-29T17:30:41;12.40;99.90
51655;DHT22;37732;53.106;7.030;2022-09-29T17:33:10;12.30;99.90
51655;DHT22;37732;53.106;7.030;2022-09-29T17:35:39;12.30;99.90
51655;DHT22;37732;53.106;7.030;2022-09-29T17:38:06;12.20;99.90
51655;DHT22;37732;53.106;7.030;2022-09-29T17:43:05;12.20;99.90
51655;DHT22;37732;53.106;7.030;2022-09-29T17:45:31;12.10;99.90
51655;DHT22;37732;53.106;7.030;2022-09-29T17:48:01;12.10;99.90
51655;DHT22;37732;53.106;7.030;2022-09-29T17:50:31;12.10;99.90
51655;DHT22;37732;53.106;7.030;2022-09-29T17:52:58;12.00;99.90
51655;DHT22;37732;53.106;7.030;2022-09-29T17:55:25;12.00;99.90
51655;DHT22;37732;53.106;7.030;2022-09-29T17:57:51;11.90;99.90
51655;DHT22;37732;53.106;7.030;2022-09-29T18:00:22;11.90;99.90
51655;DHT22;37732;53.106;7.030;2022-09-29T18:02:49;11.90;99.90
51655;DHT22;37732;53.106;7.030;2022-09-29T18:05:16;11.80;99.90
51655;DHT22;37732;53.106;7.030;2022-09-29T18:07:51;12.30;99.90
51655;DHT22;37732;53.106;7.030;2022-09-29T18:10:26;11.70;99.90
51655;DHT22;37732;53.106;7.030;2022-09-29T18:12:52;11.70;99.90
51655;DHT22;37732;53.106;7.030;2022-09-29T18:15:19;11.60;99.90
51655;DHT22;37732;53.106;7.030;2022-09-29T18:17:46;11.60;99.90
51655;DHT22;37732;53.106;7.030;2022-09-29T18:20:17;11.50;99.90
51655;DHT22;37732;53.106;7.030;2022-09-29T18:22:43;11.40;99.90
51655;DHT22;37732;53.106;7.030;2022-09-29T18:25:16;11.40;99.90
51655;DHT22;37732;53.106;7.030;2022-09-29T18:27:47;11.30;99.90
51655;DHT22;37732;53.106;7.030;2022-09-29T18:32:49;11.30;99.90
51655;DHT22;37732;53.106;7.030;2022-09-29T18:35:21;11.20;99.90
51655;DHT22;37732;53.106;7.030;2022-09-29T18:37:47;11.10;99.90
51655;DHT22;37732;53.106;7.030;2022-09-29T18:40:13;11.20;99.90
51655;DHT22;37732;53.106;7.030;2022-09-29T18:42:44;11.20;99.90
51655;DHT22;37732;53.106;7.030;2022-09-29T18:45:12;11.20;99.90
51655;DHT22;37732;53.106;7.030;2022-09-29T18:47:43;11.20;99.90
51655;DHT22;37732;53.106;7.030;2022-09-29T18:50:20;11.10;99.90
51655;DHT22;37732;53.106;7.030;2022-09-29T18:52:47;11.10;99.90
51655;DHT22;37732;53.106;7.030;2022-09-29T18:55:19;11.10;99.90
51655;DHT22;37732;53.106;7.030;2022-09-29T18:57:48;11.10;99.90
51655;DHT22;37732;53.106;7.030;2022-09-29T19:00:16;11.00;99.90
51655;DHT22;37732;53.106;7.030;2022-09-29T19:02:44;11.00;99.90
51655;DHT22;37732;53.106;7.030;2022-09-29T19:05:14;11.00;99.90
51655;DHT22;37732;53.106;7.030;2022-09-29T19:07:48;11.00;99.90
51655;DHT22;37732;53.106;7.030;2022-09-29T19:10:15;10.90;99.90
51655;DHT22;37732;53.106;7.030;2022-09-29T19:12:42;10.90;99.90
51655;DHT22;37732;53.106;7.030;2022-09-29T19:15:13;10.90;99.90
51655;DHT22;37732;53.106;7.030;2022-09-29T19:17:38;10.90;99.90
51655;DHT22;37732;53.106;7.030;2022-09-29T19:20:05;10.90;99.90
51655;DHT22;37732;53.106;7.030;2022-09-29T19:22:30;10.90;99.90
51655;DHT22;37732;53.106;7.030;2022-09-29T19:25:10;11.30;99.90
51655;DHT22;37732;53.106;7.030;2022-09-29T19:27:39;10.80;99.90
51655;DHT22;37732;53.106;7.030;2022-09-29T19:30:07;10.80;99.90
51655;DHT22;37732;53.106;7.030;2022-09-29T19:32:33;10.70;99.90
51655;DHT22;37732;53.106;7.030;2022-09-29T19:34:59;10.70;99.90
51655;DHT22;37732;53.106;7.030;2022-09-29T19:37:25;10.70;99.90
51655;DHT22;37732;53.106;7.030;2022-09-29T19:39:51;10.60;99.90
51655;DHT22;37732;53.106;7.030;2022-09-29T19:42:17;11.20;99.90
51655;DHT22;37732;53.106;7.030;2022-09-29T19:44:43;10.60;99.90
51655;DHT22;37732;53.106;7.030;2022-09-29T19:47:09;10.60;99.90
51655;DHT22;37732;53.106;7.030;2022-09-29T19:49:36;10.80;99.90
51655;DHT22;37732;53.106;7.030;2022-09-29T19:52:03;10.60;99.90
51655;DHT22;37732;53.106;7.030;2022-09-29T19:54:32;10.70;99.90
51655;DHT22;37732;53.106;7.030;2022-09-29T19:57:05;10.60;99.90
51655;DHT22;37732;53.106;7.030;2022-09-29T19:59:39;10.50;99.90
51655;DHT22;37732;53.106;7.030;2022-09-29T20:02:10;10.60;99.90
51655;DHT22;37732;53.106;7.030;2022-09-29T20:04:38;10.50;99.90
51655;DHT22;37732;53.106;7.030;2022-09-29T20:07:04;10.50;99.90
51655;DHT22;37732;53.106;7.030;2022-09-29T20:09:32;10.80;99.90